sensor_id;sensor_type;location;lat;lon;timestamp;P1;durP1;ratioP1;P2;durP2;ratioP2
71236;SDS011;58984;51.960;5.582;2022-11-11T00:01:35;8.00;;;6.03;;
71236;SDS011;58984;51.960;5.582;2022-11-11T00:04:00;10.63;;;7.10;;
71236;SDS011;58984;51.960;5.582;2022-11-11T00:06:26;12.05;;;7.20;;
71236;SDS011;58984;51.960;5.582;2022-11-11T00:08:52;12.20;;;7.13;;
71236;SDS011;58984;51.960;5.582;2022-11-11T00:11:17;11.50;;;6.45;;
71236;SDS011;58984;51.960;5.582;2022-11-11T00:13:43;11.50;;;6.82;;
71236;SDS011;58984;51.960;5.582;2022-11-11T00:16:10;10.93;;;6.55;;
71236;SDS011;58984;51.960;5.582;2022-11-11T00:18:37;10.52;;;7.20;;
71236;SDS011;58984;51.960;5.582;2022-11-11T00:21:22;13.98;;;6.70;;
71236;SDS011;58984;51.960;5.582;2022-11-11T00:24:11;10.75;;;6.97;;
71236;SDS011;58984;51.960;5.582;2022-11-11T00:27:03;12.40;;;7.25;;
71236;SDS011;58984;51.960;5.582;2022-11-11T00:29:29;11.52;;;7.18;;
71236;SDS011;58984;51.960;5.582;2022-11-11T00:31:55;13.43;;;6.97;;
71236;SDS011;58984;51.960;5.582;2022-11-11T00:34:39;12.70;;;7.10;;
71236;SDS011;58984;51.960;5.582;2022-11-11T00:37:05;10.90;;;7.35;;
71236;SDS011;58984;51.960;5.582;2022-11-11T00:39:30;11.27;;;7.70;;
71236;SDS011;58984;51.960;5.582;2022-11-11T00:41:56;12.40;;;7.57;;
71236;SDS011;58984;51.960;5.582;2022-11-11T00:44:21;13.25;;;7.95;;
71236;SDS011;58984;51.960;5.582;2022-11-11T00:46:47;11.45;;;7.78;;
71236;SDS011;58984;51.960;5.582;2022-11-11T00:49:31;11.98;;;7.80;;
71236;SDS011;58984;51.960;5.582;2022-11-11T00:52:15;15.88;;;8.68;;
71236;SDS011;58984;51.960;5.582;2022-11-11T00:54:41;14.88;;;7.72;;
71236;SDS011;58984;51.960;5.582;2022-11-11T00:57:06;13.13;;;8.75;;
71236;SDS011;58984;51.960;5.582;2022-11-11T00:59:32;16.00;;;8.93;;
71236;SDS011;58984;51.960;5.582;2022-11-11T01:01:58;13.02;;;8.82;;
71236;SDS011;58984;51.960;5.582;2022-11-11T01:04:24;13.45;;;9.18;;
71236;SDS011;58984;51.960;5.582;2022-11-11T01:06:49;15.23;;;9.38;;
71236;SDS011;58984;51.960;5.582;2022-11-11T01:09:15;11.02;;;8.98;;
71236;SDS011;58984;51.960;5.582;2022-11-11T01:11:40;14.15;;;10.20;;
71236;SDS011;58984;51.960;5.582;2022-11-11T01:14:06;15.27;;;8.90;;
71236;SDS011;58984;51.960;5.582;2022-11-11T01:16:32;15.73;;;9.43;;
71236;SDS011;58984;51.960;5.582;2022-11-11T01:18:57;13.18;;;8.93;;
71236;SDS011;58984;51.960;5.582;2022-11-11T01:21:23;12.55;;;8.90;;
71236;SDS011;58984;51.960;5.582;2022-11-11T01:23:50;13.68;;;9.52;;
71236;SDS011;58984;51.960;5.582;2022-11-11T01:26:18;13.68;;;9.32;;
71236;SDS011;58984;51.960;5.582;2022-11-11T01:28:47;16.45;;;10.05;;
71236;SDS011;58984;51.960;5.582;2022-11-11T01:31:14;15.45;;;10.00;;
71236;SDS011;58984;51.960;5.582;2022-11-11T01:33:41;14.48;;;10.00;;
71236;SDS011;58984;51.960;5.582;2022-11-11T01:36:11;15.90;;;11.10;;
71236;SDS011;58984;51.960;5.582;2022-11-11T01:38:41;13.27;;;10.32;;
71236;SDS011;58984;51.960;5.582;2022-11-11T01:41:07;11.88;;;9.98;;
71236;SDS011;58984;51.960;5.582;2022-11-11T01:43:55;16.25;;;10.38;;
71236;SDS011;58984;51.960;5.582;2022-11-11T01:48:58;16.42;;;11.15;;
71236;SDS011;58984;51.960;5.582;2022-11-11T01:57:09;16.23;;;11.50;;
71236;SDS011;58984;51.960;5.582;2022-11-11T01:59:39;19.73;;;11.32;;
71236;SDS011;58984;51.960;5.582;2022-11-11T02:02:11;19.70;;;11.65;;
71236;SDS011;58984;51.960;5.582;2022-11-11T02:04:43;18.23;;;11.27;;
71236;SDS011;58984;51.960;5.582;2022-11-11T02:07:27;16.88;;;11.43;;
71236;SDS011;58984;51.960;5.582;2022-11-11T02:09:55;17.27;;;12.23;;
71236;SDS011;58984;51.960;5.582;2022-11-11T02:12:22;19.95;;;12.45;;
71236;SDS011;58984;51.960;5.582;2022-11-11T02:15:06;17.83;;;11.60;;
71236;SDS011;58984;51.960;5.582;2022-11-11T02:17:32;16.80;;;12.07;;
71236;SDS011;58984;51.960;5.582;2022-11-11T02:19:58;16.40;;;11.18;;
71236;SDS011;58984;51.960;5.582;2022-11-11T02:25:15;17.30;;;12.27;;
71236;SDS011;58984;51.960;5.582;2022-11-11T02:27:45;21.98;;;12.27;;
71236;SDS011;58984;51.960;5.582;2022-11-11T02:30:15;18.42;;;11.43;;
71236;SDS011;58984;51.960;5.582;2022-11-11T02:32:42;16.65;;;11.98;;
71236;SDS011;58984;51.960;5.582;2022-11-11T02:35:30;18.75;;;12.35;;
71236;SDS011;58984;51.960;5.582;2022-11-11T02:37:56;19.20;;;12.40;;
71236;SDS011;58984;51.960;5.582;2022-11-11T02:42:53;20.63;;;12.53;;
71236;SDS011;58984;51.960;5.582;2022-11-11T02:45:19;20.17;;;12.02;;
71236;SDS011;58984;51.960;5.582;2022-11-11T02:47:45;18.27;;;11.52;;
71236;SDS011;58984;51.960;5.582;2022-11-11T02:50:10;16.67;;;11.43;;
71236;SDS011;58984;51.960;5.582;2022-11-11T02:52:36;19.40;;;12.25;;
71236;SDS011;58984;51.960;5.582;2022-11-11T02:55:01;17.17;;;12.93;;
71236;SDS011;58984;51.960;5.582;2022-11-11T02:57:27;20.30;;;12.38;;
71236;SDS011;58984;51.960;5.582;2022-11-11T02:59:53;17.67;;;11.73;;
71236;SDS011;58984;51.960;5.582;2022-11-11T03:02:20;17.80;;;12.32;;
71236;SDS011;58984;51.960;5.582;2022-11-11T03:04:46;17.25;;;12.13;;
71236;SDS011;58984;51.960;5.582;2022-11-11T03:07:11;20.15;;;12.27;;
71236;SDS011;58984;51.960;5.582;2022-11-11T03:09:37;17.02;;;12.68;;
71236;SDS011;58984;51.960;5.582;2022-11-11T03:12:03;17.80;;;12.18;;
71236;SDS011;58984;51.960;5.582;2022-11-11T03:14:28;19.85;;;12.55;;
71236;SDS011;58984;51.960;5.582;2022-11-11T03:16:54;19.40;;;12.35;;
71236;SDS011;58984;51.960;5.582;2022-11-11T03:19:38;18.02;;;11.70;;
71236;SDS011;58984;51.960;5.582;2022-11-11T03:22:04;19.17;;;12.07;;
71236;SDS011;58984;51.960;5.582;2022-11-11T03:24:29;22.83;;;12.90;;
71236;SDS011;58984;51.960;5.582;2022-11-11T03:27:13;19.75;;;12.05;;
71236;SDS011;58984;51.960;5.582;2022-11-11T03:29:39;16.05;;;11.27;;
71236;SDS011;58984;51.960;5.582;2022-11-11T03:32:05;14.13;;;11.20;;
71236;SDS011;58984;51.960;5.582;2022-11-11T03:34:31;21.23;;;12.18;;
71236;SDS011;58984;51.960;5.582;2022-11-11T03:36:57;21.90;;;11.60;;
71236;SDS011;58984;51.960;5.582;2022-11-11T03:39:41;18.83;;;12.25;;
71236;SDS011;58984;51.960;5.582;2022-11-11T03:42:07;16.30;;;11.30;;
71236;SDS011;58984;51.960;5.582;2022-11-11T03:44:32;15.75;;;10.30;;
71236;SDS011;58984;51.960;5.582;2022-11-11T03:46:58;16.20;;;10.88;;
71236;SDS011;58984;51.960;5.582;2022-11-11T03:49:24;18.00;;;10.60;;
71236;SDS011;58984;51.960;5.582;2022-11-11T03:51:49;19.42;;;11.50;;
71236;SDS011;58984;51.960;5.582;2022-11-11T03:54:15;18.23;;;10.57;;
71236;SDS011;58984;51.960;5.582;2022-11-11T03:56:41;15.13;;;10.35;;
71236;SDS011;58984;51.960;5.582;2022-11-11T03:59:06;18.58;;;10.85;;
71236;SDS011;58984;51.960;5.582;2022-11-11T04:01:32;13.52;;;9.60;;
71236;SDS011;58984;51.960;5.582;2022-11-11T04:04:19;17.98;;;10.02;;
71236;SDS011;58984;51.960;5.582;2022-11-11T04:07:03;16.58;;;9.77;;
71236;SDS011;58984;51.960;5.582;2022-11-11T04:09:47;16.42;;;10.05;;
71236;SDS011;58984;51.960;5.582;2022-11-11T04:12:31;16.50;;;9.38;;
71236;SDS011;58984;51.960;5.582;2022-11-11T04:15:18;19.50;;;10.60;;
71236;SDS011;58984;51.960;5.582;2022-11-11T04:18:03;16.88;;;9.93;;
71236;SDS011;58984;51.960;5.582;2022-11-11T04:20:28;18.00;;;9.73;;
71236;SDS011;58984;51.960;5.582;2022-11-11T04:23:12;14.02;;;9.27;;
71236;SDS011;58984;51.960;5.582;2022-11-11T04:25:38;15.00;;;9.48;;
71236;SDS011;58984;51.960;5.582;2022-11-11T04:28:17;10.60;;;7.95;;
71236;SDS011;58984;51.960;5.582;2022-11-11T04:31:01;13.88;;;9.43;;
71236;SDS011;58984;51.960;5.582;2022-11-11T04:33:27;15.75;;;9.75;;
71236;SDS011;58984;51.960;5.582;2022-11-11T04:35:52;13.93;;;8.77;;
71236;SDS011;58984;51.960;5.582;2022-11-11T04:38:18;12.23;;;8.25;;
71236;SDS011;58984;51.960;5.582;2022-11-11T04:41:02;17.92;;;9.70;;
71236;SDS011;58984;51.960;5.582;2022-11-11T04:43:28;13.02;;;9.00;;
71236;SDS011;58984;51.960;5.582;2022-11-11T04:45:58;16.08;;;9.05;;
71236;SDS011;58984;51.960;5.582;2022-11-11T04:48:24;17.17;;;9.07;;
71236;SDS011;58984;51.960;5.582;2022-11-11T04:50:49;12.18;;;8.90;;
71236;SDS011;58984;51.960;5.582;2022-11-11T04:53:15;15.93;;;9.30;;
71236;SDS011;58984;51.960;5.582;2022-11-11T04:55:41;14.68;;;9.20;;
71236;SDS011;58984;51.960;5.582;2022-11-11T04:58:28;15.15;;;8.48;;
71236;SDS011;58984;51.960;5.582;2022-11-11T05:00:55;14.00;;;8.82;;
71236;SDS011;58984;51.960;5.582;2022-11-11T05:03:21;13.73;;;9.30;;
71236;SDS011;58984;51.960;5.582;2022-11-11T05:05:53;14.07;;;9.10;;
71236;SDS011;58984;51.960;5.582;2022-11-11T05:08:46;16.00;;;9.55;;
71236;SDS011;58984;51.960;5.582;2022-11-11T05:13:59;13.60;;;8.73;;
71236;SDS011;58984;51.960;5.582;2022-11-11T05:16:48;15.63;;;9.20;;
71236;SDS011;58984;51.960;5.582;2022-11-11T05:19:32;15.80;;;9.00;;
71236;SDS011;58984;51.960;5.582;2022-11-11T05:24:48;13.20;;;8.67;;
71236;SDS011;58984;51.960;5.582;2022-11-11T05:27:32;15.80;;;9.97;;
71236;SDS011;58984;51.960;5.582;2022-11-11T05:29:58;21.23;;;9.20;;
71236;SDS011;58984;51.960;5.582;2022-11-11T05:32:24;15.32;;;10.13;;
71236;SDS011;58984;51.960;5.582;2022-11-11T05:34:50;12.45;;;9.40;;
71236;SDS011;58984;51.960;5.582;2022-11-11T05:37:16;19.63;;;8.88;;
71236;SDS011;58984;51.960;5.582;2022-11-11T05:39:42;15.77;;;9.30;;
71236;SDS011;58984;51.960;5.582;2022-11-11T05:42:08;16.42;;;8.88;;
71236;SDS011;58984;51.960;5.582;2022-11-11T05:44:34;16.85;;;9.32;;
71236;SDS011;58984;51.960;5.582;2022-11-11T05:47:00;15.40;;;8.77;;
71236;SDS011;58984;51.960;5.582;2022-11-11T05:49:25;13.00;;;8.40;;
71236;SDS011;58984;51.960;5.582;2022-11-11T05:51:51;13.68;;;9.00;;
71236;SDS011;58984;51.960;5.582;2022-11-11T05:54:19;14.73;;;9.43;;
71236;SDS011;58984;51.960;5.582;2022-11-11T05:56:45;17.08;;;8.95;;
71236;SDS011;58984;51.960;5.582;2022-11-11T05:59:11;15.27;;;8.82;;
71236;SDS011;58984;51.960;5.582;2022-11-11T06:01:36;13.75;;;9.15;;
71236;SDS011;58984;51.960;5.582;2022-11-11T06:04:02;15.05;;;9.23;;
71236;SDS011;58984;51.960;5.582;2022-11-11T06:06:29;13.40;;;9.40;;
71236;SDS011;58984;51.960;5.582;2022-11-11T06:08:55;12.05;;;7.82;;
71236;SDS011;58984;51.960;5.582;2022-11-11T06:11:21;14.05;;;9.30;;
71236;SDS011;58984;51.960;5.582;2022-11-11T06:13:47;15.13;;;9.57;;
71236;SDS011;58984;51.960;5.582;2022-11-11T06:16:13;16.13;;;10.30;;
71236;SDS011;58984;51.960;5.582;2022-11-11T06:18:39;17.67;;;9.95;;
71236;SDS011;58984;51.960;5.582;2022-11-11T06:21:04;15.57;;;9.70;;
71236;SDS011;58984;51.960;5.582;2022-11-11T06:23:30;12.88;;;8.70;;
71236;SDS011;58984;51.960;5.582;2022-11-11T06:28:37;14.63;;;9.13;;
71236;SDS011;58984;51.960;5.582;2022-11-11T06:31:04;16.52;;;10.20;;
71236;SDS011;58984;51.960;5.582;2022-11-11T06:33:32;16.60;;;10.00;;
71236;SDS011;58984;51.960;5.582;2022-11-11T06:35:59;17.27;;;10.90;;
71236;SDS011;58984;51.960;5.582;2022-11-11T06:38:24;14.82;;;10.05;;
71236;SDS011;58984;51.960;5.582;2022-11-11T06:40:50;17.05;;;10.32;;
71236;SDS011;58984;51.960;5.582;2022-11-11T06:43:16;18.70;;;10.25;;
71236;SDS011;58984;51.960;5.582;2022-11-11T06:45:41;15.32;;;9.63;;
71236;SDS011;58984;51.960;5.582;2022-11-11T06:48:07;19.75;;;10.55;;
71236;SDS011;58984;51.960;5.582;2022-11-11T06:50:33;17.80;;;9.02;;
71236;SDS011;58984;51.960;5.582;2022-11-11T06:53:03;14.60;;;9.65;;
71236;SDS011;58984;51.960;5.582;2022-11-11T06:55:30;15.65;;;9.80;;
71236;SDS011;58984;51.960;5.582;2022-11-11T06:58:02;13.95;;;8.77;;
71236;SDS011;58984;51.960;5.582;2022-11-11T07:00:32;17.58;;;9.57;;
71236;SDS011;58984;51.960;5.582;2022-11-11T07:02:59;16.75;;;9.48;;
71236;SDS011;58984;51.960;5.582;2022-11-11T07:05:25;14.88;;;9.52;;
71236;SDS011;58984;51.960;5.582;2022-11-11T07:07:51;17.05;;;9.35;;
71236;SDS011;58984;51.960;5.582;2022-11-11T07:10:16;18.23;;;9.23;;
71236;SDS011;58984;51.960;5.582;2022-11-11T07:12:44;16.73;;;9.68;;
71236;SDS011;58984;51.960;5.582;2022-11-11T07:15:10;15.23;;;9.55;;
71236;SDS011;58984;51.960;5.582;2022-11-11T07:17:36;16.70;;;8.63;;
71236;SDS011;58984;51.960;5.582;2022-11-11T07:20:01;15.07;;;9.35;;
71236;SDS011;58984;51.960;5.582;2022-11-11T07:22:28;17.40;;;9.73;;
71236;SDS011;58984;51.960;5.582;2022-11-11T07:24:54;14.57;;;8.70;;
71236;SDS011;58984;51.960;5.582;2022-11-11T07:27:19;14.88;;;8.88;;
71236;SDS011;58984;51.960;5.582;2022-11-11T07:29:45;17.50;;;8.40;;
71236;SDS011;58984;51.960;5.582;2022-11-11T07:32:12;14.20;;;8.88;;
71236;SDS011;58984;51.960;5.582;2022-11-11T07:34:39;17.08;;;9.43;;
71236;SDS011;58984;51.960;5.582;2022-11-11T07:37:04;16.50;;;9.95;;
71236;SDS011;58984;51.960;5.582;2022-11-11T07:39:30;14.27;;;9.02;;
71236;SDS011;58984;51.960;5.582;2022-11-11T07:41:55;14.93;;;8.93;;
71236;SDS011;58984;51.960;5.582;2022-11-11T07:44:21;12.52;;;8.63;;
71236;SDS011;58984;51.960;5.582;2022-11-11T07:46:47;12.93;;;8.68;;
71236;SDS011;58984;51.960;5.582;2022-11-11T07:49:12;14.52;;;9.60;;
71236;SDS011;58984;51.960;5.582;2022-11-11T07:51:38;17.48;;;9.40;;
71236;SDS011;58984;51.960;5.582;2022-11-11T07:54:03;12.10;;;8.93;;
71236;SDS011;58984;51.960;5.582;2022-11-11T07:56:29;14.20;;;9.07;;
71236;SDS011;58984;51.960;5.582;2022-11-11T07:58:55;13.80;;;8.45;;
71236;SDS011;58984;51.960;5.582;2022-11-11T08:01:25;16.45;;;9.27;;
71236;SDS011;58984;51.960;5.582;2022-11-11T08:03:51;13.02;;;8.52;;
71236;SDS011;58984;51.960;5.582;2022-11-11T08:06:17;13.95;;;9.50;;
71236;SDS011;58984;51.960;5.582;2022-11-11T08:08:44;11.73;;;7.82;;
71236;SDS011;58984;51.960;5.582;2022-11-11T08:11:11;13.90;;;9.23;;
71236;SDS011;58984;51.960;5.582;2022-11-11T08:13:37;12.63;;;8.88;;
71236;SDS011;58984;51.960;5.582;2022-11-11T08:16:07;13.40;;;10.10;;
71236;SDS011;58984;51.960;5.582;2022-11-11T08:18:34;17.95;;;9.57;;
71236;SDS011;58984;51.960;5.582;2022-11-11T08:21:00;15.25;;;9.02;;
71236;SDS011;58984;51.960;5.582;2022-11-11T08:23:26;15.00;;;8.70;;
71236;SDS011;58984;51.960;5.582;2022-11-11T08:26:02;12.07;;;8.67;;
71236;SDS011;58984;51.960;5.582;2022-11-11T08:28:31;13.55;;;9.13;;
71236;SDS011;58984;51.960;5.582;2022-11-11T08:30:58;16.60;;;9.13;;
71236;SDS011;58984;51.960;5.582;2022-11-11T08:33:25;13.60;;;9.00;;
71236;SDS011;58984;51.960;5.582;2022-11-11T08:35:51;15.38;;;8.90;;
71236;SDS011;58984;51.960;5.582;2022-11-11T08:38:18;15.23;;;8.95;;
71236;SDS011;58984;51.960;5.582;2022-11-11T08:40:48;11.82;;;8.73;;
71236;SDS011;58984;51.960;5.582;2022-11-11T08:43:14;15.35;;;9.38;;
71236;SDS011;58984;51.960;5.582;2022-11-11T08:45:40;20.70;;;8.82;;
71236;SDS011;58984;51.960;5.582;2022-11-11T08:48:06;14.90;;;8.80;;
71236;SDS011;58984;51.960;5.582;2022-11-11T08:50:36;14.45;;;8.95;;
71236;SDS011;58984;51.960;5.582;2022-11-11T08:53:02;14.48;;;9.68;;
71236;SDS011;58984;51.960;5.582;2022-11-11T08:55:29;14.45;;;8.95;;
71236;SDS011;58984;51.960;5.582;2022-11-11T08:58:00;13.60;;;9.13;;
71236;SDS011;58984;51.960;5.582;2022-11-11T09:00:28;16.05;;;9.18;;
71236;SDS011;58984;51.960;5.582;2022-11-11T09:02:53;14.65;;;9.52;;
71236;SDS011;58984;51.960;5.582;2022-11-11T09:05:19;14.43;;;8.73;;
71236;SDS011;58984;51.960;5.582;2022-11-11T09:07:46;15.27;;;8.80;;
71236;SDS011;58984;51.960;5.582;2022-11-11T09:10:14;13.15;;;8.88;;
71236;SDS011;58984;51.960;5.582;2022-11-11T09:12:41;14.85;;;8.85;;
71236;SDS011;58984;51.960;5.582;2022-11-11T09:15:06;11.77;;;8.10;;
71236;SDS011;58984;51.960;5.582;2022-11-11T09:17:32;13.23;;;8.20;;
71236;SDS011;58984;51.960;5.582;2022-11-11T09:19:58;13.00;;;8.82;;
71236;SDS011;58984;51.960;5.582;2022-11-11T09:22:23;13.10;;;7.88;;
71236;SDS011;58984;51.960;5.582;2022-11-11T09:24:49;12.60;;;7.88;;
71236;SDS011;58984;51.960;5.582;2022-11-11T09:27:15;9.10;;;7.50;;
71236;SDS011;58984;51.960;5.582;2022-11-11T09:29:41;12.80;;;8.10;;
71236;SDS011;58984;51.960;5.582;2022-11-11T09:32:07;12.48;;;7.90;;
71236;SDS011;58984;51.960;5.582;2022-11-11T09:34:32;14.27;;;8.18;;
71236;SDS011;58984;51.960;5.582;2022-11-11T09:36:58;12.27;;;8.27;;
71236;SDS011;58984;51.960;5.582;2022-11-11T09:39:25;13.40;;;8.20;;
71236;SDS011;58984;51.960;5.582;2022-11-11T09:49:58;11.85;;;7.95;;
71236;SDS011;58984;51.960;5.582;2022-11-11T09:55:21;11.60;;;8.10;;
71236;SDS011;58984;51.960;5.582;2022-11-11T09:57:55;12.13;;;7.70;;
71236;SDS011;58984;51.960;5.582;2022-11-11T10:00:39;11.35;;;8.57;;
71236;SDS011;58984;51.960;5.582;2022-11-11T10:05:39;13.10;;;8.27;;
71236;SDS011;58984;51.960;5.582;2022-11-11T10:08:19;12.40;;;7.78;;
71236;SDS011;58984;51.960;5.582;2022-11-11T10:10:51;14.23;;;8.88;;
71236;SDS011;58984;51.960;5.582;2022-11-11T10:21:29;12.85;;;7.57;;
71236;SDS011;58984;51.960;5.582;2022-11-11T10:24:00;13.75;;;7.45;;
71236;SDS011;58984;51.960;5.582;2022-11-11T10:28:59;12.70;;;8.05;;
71236;SDS011;58984;51.960;5.582;2022-11-11T10:31:28;11.43;;;7.47;;
71236;SDS011;58984;51.960;5.582;2022-11-11T10:33:55;11.48;;;7.50;;
71236;SDS011;58984;51.960;5.582;2022-11-11T10:36:25;13.00;;;7.55;;
71236;SDS011;58984;51.960;5.582;2022-11-11T10:38:58;15.18;;;8.23;;
71236;SDS011;58984;51.960;5.582;2022-11-11T10:41:37;10.23;;;7.00;;
71236;SDS011;58984;51.960;5.582;2022-11-11T10:44:20;11.18;;;7.50;;
71236;SDS011;58984;51.960;5.582;2022-11-11T10:46:57;12.43;;;7.68;;
71236;SDS011;58984;51.960;5.582;2022-11-11T10:49:36;13.05;;;7.65;;
71236;SDS011;58984;51.960;5.582;2022-11-11T10:52:18;14.23;;;7.95;;
71236;SDS011;58984;51.960;5.582;2022-11-11T10:54:54;18.73;;;7.45;;
71236;SDS011;58984;51.960;5.582;2022-11-11T10:57:30;9.73;;;7.13;;
71236;SDS011;58984;51.960;5.582;2022-11-11T11:00:06;12.75;;;7.97;;
71236;SDS011;58984;51.960;5.582;2022-11-11T11:05:28;10.73;;;6.65;;
71236;SDS011;58984;51.960;5.582;2022-11-11T11:08:11;12.55;;;7.82;;
71236;SDS011;58984;51.960;5.582;2022-11-11T11:10:51;10.00;;;7.38;;
71236;SDS011;58984;51.960;5.582;2022-11-11T11:13:22;10.13;;;6.68;;
71236;SDS011;58984;51.960;5.582;2022-11-11T11:16:13;13.52;;;7.25;;
71236;SDS011;58984;51.960;5.582;2022-11-11T11:18:41;10.60;;;7.25;;
71236;SDS011;58984;51.960;5.582;2022-11-11T11:21:08;12.27;;;7.20;;
71236;SDS011;58984;51.960;5.582;2022-11-11T11:26:03;9.35;;;6.70;;
71236;SDS011;58984;51.960;5.582;2022-11-11T11:28:29;13.13;;;6.43;;
71236;SDS011;58984;51.960;5.582;2022-11-11T11:31:05;10.18;;;6.70;;
71236;SDS011;58984;51.960;5.582;2022-11-11T11:36:20;11.75;;;7.13;;
71236;SDS011;58984;51.960;5.582;2022-11-11T11:38:47;9.20;;;6.30;;
71236;SDS011;58984;51.960;5.582;2022-11-11T11:41:16;9.02;;;6.07;;
71236;SDS011;58984;51.960;5.582;2022-11-11T11:44:00;11.18;;;6.80;;
71236;SDS011;58984;51.960;5.582;2022-11-11T11:51:53;11.27;;;6.70;;
71236;SDS011;58984;51.960;5.582;2022-11-11T12:00:11;15.32;;;7.35;;
71236;SDS011;58984;51.960;5.582;2022-11-11T12:02:56;11.85;;;7.28;;
71236;SDS011;58984;51.960;5.582;2022-11-11T12:05:46;12.00;;;6.80;;
71236;SDS011;58984;51.960;5.582;2022-11-11T12:14:22;12.95;;;7.53;;
71236;SDS011;58984;51.960;5.582;2022-11-11T12:20:19;11.35;;;6.82;;
71236;SDS011;58984;51.960;5.582;2022-11-11T12:23:10;11.18;;;6.63;;
71236;SDS011;58984;51.960;5.582;2022-11-11T12:25:56;9.50;;;6.07;;
71236;SDS011;58984;51.960;5.582;2022-11-11T12:31:05;9.65;;;6.45;;
71236;SDS011;58984;51.960;5.582;2022-11-11T12:33:51;8.77;;;6.00;;
71236;SDS011;58984;51.960;5.582;2022-11-11T12:44:20;12.07;;;6.80;;
71236;SDS011;58984;51.960;5.582;2022-11-11T12:47:13;11.23;;;6.10;;
71236;SDS011;58984;51.960;5.582;2022-11-11T12:50:12;11.30;;;6.30;;
71236;SDS011;58984;51.960;5.582;2022-11-11T12:55:39;9.10;;;6.20;;
71236;SDS011;58984;51.960;5.582;2022-11-11T12:58:29;9.65;;;6.05;;
71236;SDS011;58984;51.960;5.582;2022-11-11T13:04:24;9.35;;;5.38;;
71236;SDS011;58984;51.960;5.582;2022-11-11T13:15:37;8.40;;;5.63;;
71236;SDS011;58984;51.960;5.582;2022-11-11T13:18:07;8.95;;;5.63;;
71236;SDS011;58984;51.960;5.582;2022-11-11T13:20:41;7.93;;;5.90;;
71236;SDS011;58984;51.960;5.582;2022-11-11T13:23:11;8.32;;;5.32;;
71236;SDS011;58984;51.960;5.582;2022-11-11T13:25:43;9.82;;;5.50;;
71236;SDS011;58984;51.960;5.582;2022-11-11T13:28:16;8.95;;;6.05;;
71236;SDS011;58984;51.960;5.582;2022-11-11T13:30:58;8.27;;;5.63;;
71236;SDS011;58984;51.960;5.582;2022-11-11T13:33:35;8.95;;;5.85;;
71236;SDS011;58984;51.960;5.582;2022-11-11T13:36:05;8.82;;;5.40;;
71236;SDS011;58984;51.960;5.582;2022-11-11T13:38:34;9.05;;;5.10;;
71236;SDS011;58984;51.960;5.582;2022-11-11T13:41:39;8.05;;;5.60;;
71236;SDS011;58984;51.960;5.582;2022-11-11T13:44:07;17.17;;;7.88;;
71236;SDS011;58984;51.960;5.582;2022-11-11T13:46:40;11.00;;;6.38;;
71236;SDS011;58984;51.960;5.582;2022-11-11T13:52:02;13.50;;;6.30;;
71236;SDS011;58984;51.960;5.582;2022-11-11T13:54:38;8.63;;;5.43;;
71236;SDS011;58984;51.960;5.582;2022-11-11T13:59:39;8.40;;;5.97;;
71236;SDS011;58984;51.960;5.582;2022-11-11T14:15:31;13.40;;;5.43;;
71236;SDS011;58984;51.960;5.582;2022-11-11T14:18:10;8.60;;;5.13;;
71236;SDS011;58984;51.960;5.582;2022-11-11T14:21:00;8.05;;;5.03;;
71236;SDS011;58984;51.960;5.582;2022-11-11T14:26:20;9.05;;;5.10;;
71236;SDS011;58984;51.960;5.582;2022-11-11T14:45:02;6.60;;;4.47;;
71236;SDS011;58984;51.960;5.582;2022-11-11T14:47:47;6.53;;;4.45;;
71236;SDS011;58984;51.960;5.582;2022-11-11T14:52:58;8.15;;;4.90;;
71236;SDS011;58984;51.960;5.582;2022-11-11T14:55:27;6.07;;;4.20;;
71236;SDS011;58984;51.960;5.582;2022-11-11T15:00:48;8.00;;;4.50;;
71236;SDS011;58984;51.960;5.582;2022-11-11T15:03:41;8.02;;;4.50;;
71236;SDS011;58984;51.960;5.582;2022-11-11T15:09:08;8.60;;;4.95;;
71236;SDS011;58984;51.960;5.582;2022-11-11T15:11:43;7.63;;;4.60;;
71236;SDS011;58984;51.960;5.582;2022-11-11T15:14:34;7.18;;;4.88;;
71236;SDS011;58984;51.960;5.582;2022-11-11T15:28:15;8.52;;;5.10;;
71236;SDS011;58984;51.960;5.582;2022-11-11T15:38:39;8.57;;;5.47;;
71236;SDS011;58984;51.960;5.582;2022-11-11T15:41:10;9.88;;;6.35;;
71236;SDS011;58984;51.960;5.582;2022-11-11T15:43:56;12.77;;;6.90;;
71236;SDS011;58984;51.960;5.582;2022-11-11T15:46:24;11.90;;;7.43;;
71236;SDS011;58984;51.960;5.582;2022-11-11T15:48:52;13.68;;;9.07;;
71236;SDS011;58984;51.960;5.582;2022-11-11T15:53:47;15.10;;;8.73;;
71236;SDS011;58984;51.960;5.582;2022-11-11T15:56:29;12.18;;;8.68;;
71236;SDS011;58984;51.960;5.582;2022-11-11T15:58:57;13.38;;;8.63;;
71236;SDS011;58984;51.960;5.582;2022-11-11T16:01:40;10.82;;;8.07;;
71236;SDS011;58984;51.960;5.582;2022-11-11T16:04:09;11.00;;;7.60;;
71236;SDS011;58984;51.960;5.582;2022-11-11T16:06:42;13.35;;;7.95;;
71236;SDS011;58984;51.960;5.582;2022-11-11T16:09:09;11.55;;;7.15;;
71236;SDS011;58984;51.960;5.582;2022-11-11T16:11:42;9.27;;;6.57;;
71236;SDS011;58984;51.960;5.582;2022-11-11T16:14:17;14.57;;;7.07;;
71236;SDS011;58984;51.960;5.582;2022-11-11T16:16:51;12.23;;;7.03;;
71236;SDS011;58984;51.960;5.582;2022-11-11T16:19:23;13.70;;;7.20;;
71236;SDS011;58984;51.960;5.582;2022-11-11T16:22:02;9.88;;;6.25;;
71236;SDS011;58984;51.960;5.582;2022-11-11T16:24:33;11.32;;;6.50;;
71236;SDS011;58984;51.960;5.582;2022-11-11T16:27:02;7.82;;;5.38;;
71236;SDS011;58984;51.960;5.582;2022-11-11T16:29:35;10.07;;;5.93;;
71236;SDS011;58984;51.960;5.582;2022-11-11T16:34:52;9.23;;;5.32;;
71236;SDS011;58984;51.960;5.582;2022-11-11T16:37:18;9.27;;;5.38;;
71236;SDS011;58984;51.960;5.582;2022-11-11T16:39:45;7.20;;;4.75;;
71236;SDS011;58984;51.960;5.582;2022-11-11T16:42:27;9.57;;;4.95;;
71236;SDS011;58984;51.960;5.582;2022-11-11T16:55:18;17.13;;;11.10;;
71236;SDS011;58984;51.960;5.582;2022-11-11T16:57:47;15.07;;;9.32;;
71236;SDS011;58984;51.960;5.582;2022-11-11T17:00:14;12.00;;;8.15;;
71236;SDS011;58984;51.960;5.582;2022-11-11T17:02:42;10.43;;;8.02;;
71236;SDS011;58984;51.960;5.582;2022-11-11T17:05:09;14.88;;;7.28;;
71236;SDS011;58984;51.960;5.582;2022-11-11T17:07:38;9.55;;;7.10;;
71236;SDS011;58984;51.960;5.582;2022-11-11T17:10:13;11.13;;;6.93;;
71236;SDS011;58984;51.960;5.582;2022-11-11T17:12:41;9.13;;;6.65;;
71236;SDS011;58984;51.960;5.582;2022-11-11T17:15:07;10.55;;;6.50;;
71236;SDS011;58984;51.960;5.582;2022-11-11T17:17:39;9.40;;;6.93;;
71236;SDS011;58984;51.960;5.582;2022-11-11T17:20:08;9.45;;;7.15;;
71236;SDS011;58984;51.960;5.582;2022-11-11T17:22:36;8.80;;;6.43;;
71236;SDS011;58984;51.960;5.582;2022-11-11T17:25:10;8.35;;;6.20;;
71236;SDS011;58984;51.960;5.582;2022-11-11T17:27:36;9.90;;;5.88;;
71236;SDS011;58984;51.960;5.582;2022-11-11T17:30:02;8.93;;;6.22;;
71236;SDS011;58984;51.960;5.582;2022-11-11T17:32:27;8.43;;;5.97;;
71236;SDS011;58984;51.960;5.582;2022-11-11T17:34:53;10.23;;;6.47;;
71236;SDS011;58984;51.960;5.582;2022-11-11T17:37:20;8.45;;;5.97;;
71236;SDS011;58984;51.960;5.582;2022-11-11T17:39:45;9.23;;;6.25;;
71236;SDS011;58984;51.960;5.582;2022-11-11T17:42:11;11.15;;;5.95;;
71236;SDS011;58984;51.960;5.582;2022-11-11T17:44:38;9.57;;;6.90;;
71236;SDS011;58984;51.960;5.582;2022-11-11T17:47:03;12.73;;;7.38;;
71236;SDS011;58984;51.960;5.582;2022-11-11T17:49:29;11.52;;;7.05;;
71236;SDS011;58984;51.960;5.582;2022-11-11T17:51:54;9.25;;;7.00;;
71236;SDS011;58984;51.960;5.582;2022-11-11T17:54:20;9.30;;;6.68;;